sensor_id;sensor_type;location;lat;lon;timestamp;P1;durP1;ratioP1;P2;durP2;ratioP2
6651;SDS011;3362;50.892;10.692;2023-05-10T00:01:05;2.92;;;1.75;;
6651;SDS011;3362;50.892;10.692;2023-05-10T00:03:31;5.03;;;1.88;;
6651;SDS011;3362;50.892;10.692;2023-05-10T00:05:57;2.88;;;1.80;;
6651;SDS011;3362;50.892;10.692;2023-05-10T00:08:24;5.70;;;1.60;;
6651;SDS011;3362;50.892;10.692;2023-05-10T00:10:50;2.35;;;1.90;;
6651;SDS011;3362;50.892;10.692;2023-05-10T00:13:17;2.97;;;1.90;;
6651;SDS011;3362;50.892;10.692;2023-05-10T00:15:43;3.58;;;1.70;;
6651;SDS011;3362;50.892;10.692;2023-05-10T00:18:10;3.90;;;2.00;;
6651;SDS011;3362;50.892;10.692;2023-05-10T00:20:36;2.88;;;1.88;;
6651;SDS011;3362;50.892;10.692;2023-05-10T00:23:02;3.08;;;1.83;;
6651;SDS011;3362;50.892;10.692;2023-05-10T00:25:28;2.20;;;1.70;;
6651;SDS011;3362;50.892;10.692;2023-05-10T00:27:54;8.20;;;2.10;;
6651;SDS011;3362;50.892;10.692;2023-05-10T00:30:23;3.53;;;1.98;;
6651;SDS011;3362;50.892;10.692;2023-05-10T00:32:49;6.05;;;1.92;;
6651;SDS011;3362;50.892;10.692;2023-05-10T00:35:16;4.38;;;2.50;;
6651;SDS011;3362;50.892;10.692;2023-05-10T00:37:42;4.10;;;1.83;;
6651;SDS011;3362;50.892;10.692;2023-05-10T00:40:09;3.53;;;2.17;;
6651;SDS011;3362;50.892;10.692;2023-05-10T00:42:35;5.80;;;1.95;;
6651;SDS011;3362;50.892;10.692;2023-05-10T00:45:02;3.20;;;2.20;;
6651;SDS011;3362;50.892;10.692;2023-05-10T00:47:29;2.20;;;1.65;;
6651;SDS011;3362;50.892;10.692;2023-05-10T00:49:55;3.63;;;2.45;;
6651;SDS011;3362;50.892;10.692;2023-05-10T00:52:22;3.63;;;1.90;;
6651;SDS011;3362;50.892;10.692;2023-05-10T00:54:48;2.95;;;1.98;;
6651;SDS011;3362;50.892;10.692;2023-05-10T00:57:15;2.80;;;1.90;;
6651;SDS011;3362;50.892;10.692;2023-05-10T00:59:41;2.63;;;1.95;;
6651;SDS011;3362;50.892;10.692;2023-05-10T01:02:08;3.50;;;3.15;;
6651;SDS011;3362;50.892;10.692;2023-05-10T01:04:35;4.80;;;1.90;;
6651;SDS011;3362;50.892;10.692;2023-05-10T01:07:02;5.18;;;2.13;;
6651;SDS011;3362;50.892;10.692;2023-05-10T01:09:28;6.30;;;3.00;;
6651;SDS011;3362;50.892;10.692;2023-05-10T01:11:54;5.53;;;2.90;;
6651;SDS011;3362;50.892;10.692;2023-05-10T01:14:21;3.33;;;2.20;;
6651;SDS011;3362;50.892;10.692;2023-05-10T01:16:47;3.50;;;2.40;;
6651;SDS011;3362;50.892;10.692;2023-05-10T01:19:16;2.65;;;2.03;;
6651;SDS011;3362;50.892;10.692;2023-05-10T01:21:47;3.55;;;1.92;;
6651;SDS011;3362;50.892;10.692;2023-05-10T01:24:22;3.25;;;1.95;;
6651;SDS011;3362;50.892;10.692;2023-05-10T01:27:02;4.05;;;2.55;;
6651;SDS011;3362;50.892;10.692;2023-05-10T01:29:41;3.45;;;2.25;;
6651;SDS011;3362;50.892;10.692;2023-05-10T01:32:16;2.60;;;2.10;;
6651;SDS011;3362;50.892;10.692;2023-05-10T01:34:48;3.10;;;2.30;;
6651;SDS011;3362;50.892;10.692;2023-05-10T01:37:20;5.53;;;2.83;;
6651;SDS011;3362;50.892;10.692;2023-05-10T01:39:48;4.35;;;2.28;;
6651;SDS011;3362;50.892;10.692;2023-05-10T01:42:16;4.88;;;2.58;;
6651;SDS011;3362;50.892;10.692;2023-05-10T01:44:45;3.08;;;2.42;;
6651;SDS011;3362;50.892;10.692;2023-05-10T01:47:16;2.85;;;2.22;;
6651;SDS011;3362;50.892;10.692;2023-05-10T01:49:47;6.25;;;2.90;;
6651;SDS011;3362;50.892;10.692;2023-05-10T01:52:15;4.50;;;3.88;;
6651;SDS011;3362;50.892;10.692;2023-05-10T01:54:44;3.80;;;2.85;;
6651;SDS011;3362;50.892;10.692;2023-05-10T01:57:15;4.38;;;3.00;;
6651;SDS011;3362;50.892;10.692;2023-05-10T01:59:42;5.35;;;3.47;;
6651;SDS011;3362;50.892;10.692;2023-05-10T02:02:09;4.65;;;3.47;;
6651;SDS011;3362;50.892;10.692;2023-05-10T02:04:38;4.28;;;3.00;;
6651;SDS011;3362;50.892;10.692;2023-05-10T02:07:05;3.08;;;2.78;;
6651;SDS011;3362;50.892;10.692;2023-05-10T02:09:32;5.10;;;2.90;;
6651;SDS011;3362;50.892;10.692;2023-05-10T02:11:59;5.47;;;2.90;;
6651;SDS011;3362;50.892;10.692;2023-05-10T02:14:27;6.38;;;3.70;;
6651;SDS011;3362;50.892;10.692;2023-05-10T02:16:54;5.97;;;3.78;;
6651;SDS011;3362;50.892;10.692;2023-05-10T02:19:21;4.90;;;3.10;;
6651;SDS011;3362;50.892;10.692;2023-05-10T02:21:50;5.32;;;3.60;;
6651;SDS011;3362;50.892;10.692;2023-05-10T02:24:17;3.92;;;3.17;;
6651;SDS011;3362;50.892;10.692;2023-05-10T02:26:43;5.70;;;3.72;;
6651;SDS011;3362;50.892;10.692;2023-05-10T02:29:10;11.15;;;4.75;;
6651;SDS011;3362;50.892;10.692;2023-05-10T02:31:37;4.65;;;3.60;;
6651;SDS011;3362;50.892;10.692;2023-05-10T02:34:03;4.40;;;3.22;;
6651;SDS011;3362;50.892;10.692;2023-05-10T02:36:30;7.72;;;3.67;;
6651;SDS011;3362;50.892;10.692;2023-05-10T02:38:58;5.80;;;3.75;;
6651;SDS011;3362;50.892;10.692;2023-05-10T02:41:25;7.18;;;3.70;;
6651;SDS011;3362;50.892;10.692;2023-05-10T02:43:51;6.03;;;3.70;;
6651;SDS011;3362;50.892;10.692;2023-05-10T02:46:19;6.18;;;3.78;;
6651;SDS011;3362;50.892;10.692;2023-05-10T02:48:45;6.72;;;3.78;;
6651;SDS011;3362;50.892;10.692;2023-05-10T02:51:11;5.75;;;3.75;;
6651;SDS011;3362;50.892;10.692;2023-05-10T02:53:39;7.32;;;4.15;;
6651;SDS011;3362;50.892;10.692;2023-05-10T02:56:09;11.90;;;4.93;;
6651;SDS011;3362;50.892;10.692;2023-05-10T02:58:38;10.43;;;4.38;;
6651;SDS011;3362;50.892;10.692;2023-05-10T03:01:04;9.57;;;4.30;;
6651;SDS011;3362;50.892;10.692;2023-05-10T03:03:32;5.57;;;3.78;;
6651;SDS011;3362;50.892;10.692;2023-05-10T03:05:58;7.18;;;4.05;;
6651;SDS011;3362;50.892;10.692;2023-05-10T03:08:25;6.65;;;3.78;;
6651;SDS011;3362;50.892;10.692;2023-05-10T03:10:55;5.50;;;4.20;;
6651;SDS011;3362;50.892;10.692;2023-05-10T03:13:28;6.43;;;3.80;;
6651;SDS011;3362;50.892;10.692;2023-05-10T03:15:56;5.28;;;3.75;;
6651;SDS011;3362;50.892;10.692;2023-05-10T03:18:27;6.60;;;4.20;;
6651;SDS011;3362;50.892;10.692;2023-05-10T03:20:55;5.10;;;4.00;;
6651;SDS011;3362;50.892;10.692;2023-05-10T03:23:26;7.32;;;4.40;;
6651;SDS011;3362;50.892;10.692;2023-05-10T03:25:53;4.55;;;3.60;;
6651;SDS011;3362;50.892;10.692;2023-05-10T03:28:20;6.03;;;3.80;;
6651;SDS011;3362;50.892;10.692;2023-05-10T03:30:48;7.93;;;3.58;;
6651;SDS011;3362;50.892;10.692;2023-05-10T03:33:15;6.32;;;4.18;;
6651;SDS011;3362;50.892;10.692;2023-05-10T03:35:41;6.55;;;4.10;;
6651;SDS011;3362;50.892;10.692;2023-05-10T03:38:10;6.03;;;3.00;;
6651;SDS011;3362;50.892;10.692;2023-05-10T03:40:36;4.35;;;3.15;;
6651;SDS011;3362;50.892;10.692;2023-05-10T03:43:03;4.80;;;3.30;;
6651;SDS011;3362;50.892;10.692;2023-05-10T03:45:29;4.03;;;3.00;;
6651;SDS011;3362;50.892;10.692;2023-05-10T03:47:57;4.45;;;2.65;;
6651;SDS011;3362;50.892;10.692;2023-05-10T03:50:23;5.72;;;2.50;;
6651;SDS011;3362;50.892;10.692;2023-05-10T03:52:49;5.68;;;2.63;;
6651;SDS011;3362;50.892;10.692;2023-05-10T03:55:16;3.47;;;2.60;;
6651;SDS011;3362;50.892;10.692;2023-05-10T03:57:42;2.80;;;2.00;;
6651;SDS011;3362;50.892;10.692;2023-05-10T04:00:09;4.40;;;2.72;;
6651;SDS011;3362;50.892;10.692;2023-05-10T04:02:35;2.60;;;2.35;;
6651;SDS011;3362;50.892;10.692;2023-05-10T04:05:03;3.08;;;2.35;;
6651;SDS011;3362;50.892;10.692;2023-05-10T04:07:29;6.22;;;2.47;;
6651;SDS011;3362;50.892;10.692;2023-05-10T04:09:55;2.47;;;2.17;;
6651;SDS011;3362;50.892;10.692;2023-05-10T04:12:22;4.55;;;2.33;;
6651;SDS011;3362;50.892;10.692;2023-05-10T04:14:48;3.47;;;2.35;;
6651;SDS011;3362;50.892;10.692;2023-05-10T04:17:14;2.50;;;2.03;;
6651;SDS011;3362;50.892;10.692;2023-05-10T04:19:40;3.38;;;1.98;;
6651;SDS011;3362;50.892;10.692;2023-05-10T04:22:08;3.10;;;2.13;;
6651;SDS011;3362;50.892;10.692;2023-05-10T04:24:34;4.40;;;2.30;;
6651;SDS011;3362;50.892;10.692;2023-05-10T04:27:01;4.15;;;2.33;;
6651;SDS011;3362;50.892;10.692;2023-05-10T04:29:27;2.03;;;1.52;;
6651;SDS011;3362;50.892;10.692;2023-05-10T04:31:53;2.17;;;1.83;;
6651;SDS011;3362;50.892;10.692;2023-05-10T04:34:21;2.75;;;2.00;;
6651;SDS011;3362;50.892;10.692;2023-05-10T04:36:47;3.08;;;2.17;;
6651;SDS011;3362;50.892;10.692;2023-05-10T04:39:15;3.38;;;2.00;;
6651;SDS011;3362;50.892;10.692;2023-05-10T04:41:41;3.45;;;2.40;;
6651;SDS011;3362;50.892;10.692;2023-05-10T04:44:07;2.33;;;1.77;;
6651;SDS011;3362;50.892;10.692;2023-05-10T04:46:33;2.35;;;1.48;;
6651;SDS011;3362;50.892;10.692;2023-05-10T04:48:59;2.78;;;1.85;;
6651;SDS011;3362;50.892;10.692;2023-05-10T04:51:26;1.70;;;1.40;;
6651;SDS011;3362;50.892;10.692;2023-05-10T04:53:52;2.15;;;1.65;;
6651;SDS011;3362;50.892;10.692;2023-05-10T04:56:19;2.78;;;1.98;;
6651;SDS011;3362;50.892;10.692;2023-05-10T04:58:46;2.58;;;1.83;;
6651;SDS011;3362;50.892;10.692;2023-05-10T05:01:13;1.60;;;1.40;;
6651;SDS011;3362;50.892;10.692;2023-05-10T05:03:39;1.30;;;1.20;;
6651;SDS011;3362;50.892;10.692;2023-05-10T05:06:05;1.95;;;1.50;;
6651;SDS011;3362;50.892;10.692;2023-05-10T05:08:32;2.53;;;1.27;;
6651;SDS011;3362;50.892;10.692;2023-05-10T05:10:58;1.65;;;1.38;;
6651;SDS011;3362;50.892;10.692;2023-05-10T05:13:25;3.72;;;1.63;;
6651;SDS011;3362;50.892;10.692;2023-05-10T05:15:51;4.40;;;1.77;;
6651;SDS011;3362;50.892;10.692;2023-05-10T05:18:18;1.92;;;1.38;;
6651;SDS011;3362;50.892;10.692;2023-05-10T05:20:44;1.83;;;1.30;;
6651;SDS011;3362;50.892;10.692;2023-05-10T05:23:10;2.47;;;1.23;;
6651;SDS011;3362;50.892;10.692;2023-05-10T05:25:36;1.80;;;1.30;;
6651;SDS011;3362;50.892;10.692;2023-05-10T05:28:03;1.77;;;1.48;;
6651;SDS011;3362;50.892;10.692;2023-05-10T05:30:30;1.90;;;1.30;;
6651;SDS011;3362;50.892;10.692;2023-05-10T05:32:56;1.45;;;1.33;;
6651;SDS011;3362;50.892;10.692;2023-05-10T05:35:23;5.18;;;1.38;;
6651;SDS011;3362;50.892;10.692;2023-05-10T05:37:49;1.38;;;1.17;;
6651;SDS011;3362;50.892;10.692;2023-05-10T05:40:15;1.50;;;1.27;;
6651;SDS011;3362;50.892;10.692;2023-05-10T05:42:41;3.60;;;1.42;;
6651;SDS011;3362;50.892;10.692;2023-05-10T05:45:08;1.55;;;1.27;;
6651;SDS011;3362;50.892;10.692;2023-05-10T05:47:39;1.88;;;1.30;;
6651;SDS011;3362;50.892;10.692;2023-05-10T05:50:05;2.08;;;1.30;;
6651;SDS011;3362;50.892;10.692;2023-05-10T05:52:32;0.98;;;0.82;;
6651;SDS011;3362;50.892;10.692;2023-05-10T05:54:58;2.50;;;1.00;;
6651;SDS011;3362;50.892;10.692;2023-05-10T05:57:24;2.40;;;1.60;;
6651;SDS011;3362;50.892;10.692;2023-05-10T05:59:51;0.75;;;0.70;;
6651;SDS011;3362;50.892;10.692;2023-05-10T06:02:17;1.30;;;0.70;;
6651;SDS011;3362;50.892;10.692;2023-05-10T06:04:45;3.50;;;0.82;;
6651;SDS011;3362;50.892;10.692;2023-05-10T06:07:11;1.67;;;0.80;;
6651;SDS011;3362;50.892;10.692;2023-05-10T06:09:37;0.93;;;0.65;;
6651;SDS011;3362;50.892;10.692;2023-05-10T06:12:04;0.90;;;0.52;;
6651;SDS011;3362;50.892;10.692;2023-05-10T06:14:30;1.00;;;0.30;;
6651;SDS011;3362;50.892;10.692;2023-05-10T06:16:56;0.40;;;0.40;;
6651;SDS011;3362;50.892;10.692;2023-05-10T06:19:24;0.40;;;0.40;;
6651;SDS011;3362;50.892;10.692;2023-05-10T06:21:52;0.30;;;0.30;;
6651;SDS011;3362;50.892;10.692;2023-05-10T06:24:18;0.45;;;0.40;;
6651;SDS011;3362;50.892;10.692;2023-05-10T06:26:44;2.70;;;0.60;;
6651;SDS011;3362;50.892;10.692;2023-05-10T06:29:11;0.35;;;0.35;;
6651;SDS011;3362;50.892;10.692;2023-05-10T06:31:37;3.35;;;0.40;;
6651;SDS011;3362;50.892;10.692;2023-05-10T06:34:03;0.60;;;0.50;;
6651;SDS011;3362;50.892;10.692;2023-05-10T06:36:29;0.50;;;0.50;;
6651;SDS011;3362;50.892;10.692;2023-05-10T06:38:57;0.85;;;0.60;;
6651;SDS011;3362;50.892;10.692;2023-05-10T06:41:23;0.30;;;0.30;;
6651;SDS011;3362;50.892;10.692;2023-05-10T06:43:49;0.47;;;0.30;;
6651;SDS011;3362;50.892;10.692;2023-05-10T06:46:16;1.23;;;0.35;;
6651;SDS011;3362;50.892;10.692;2023-05-10T06:48:42;2.40;;;0.43;;
6651;SDS011;3362;50.892;10.692;2023-05-10T06:51:08;0.55;;;0.32;;
6651;SDS011;3362;50.892;10.692;2023-05-10T06:53:34;2.20;;;0.22;;
6651;SDS011;3362;50.892;10.692;2023-05-10T06:56:02;0.43;;;0.30;;
6651;SDS011;3362;50.892;10.692;2023-05-10T06:58:28;0.15;;;0.15;;
6651;SDS011;3362;50.892;10.692;2023-05-10T07:00:54;1.77;;;0.20;;
6651;SDS011;3362;50.892;10.692;2023-05-10T07:03:27;0.30;;;0.28;;
6651;SDS011;3362;50.892;10.692;2023-05-10T07:05:53;0.20;;;0.20;;
6651;SDS011;3362;50.892;10.692;2023-05-10T07:08:20;0.30;;;0.30;;
6651;SDS011;3362;50.892;10.692;2023-05-10T07:10:46;0.75;;;0.38;;
6651;SDS011;3362;50.892;10.692;2023-05-10T07:13:13;0.20;;;0.20;;
6651;SDS011;3362;50.892;10.692;2023-05-10T07:15:39;0.50;;;0.17;;
6651;SDS011;3362;50.892;10.692;2023-05-10T07:18:06;0.20;;;0.20;;
6651;SDS011;3362;50.892;10.692;2023-05-10T07:20:32;0.30;;;0.30;;
6651;SDS011;3362;50.892;10.692;2023-05-10T07:22:58;0.30;;;0.30;;
6651;SDS011;3362;50.892;10.692;2023-05-10T07:25:24;0.70;;;0.15;;
6651;SDS011;3362;50.892;10.692;2023-05-10T07:27:51;0.10;;;0.10;;
6651;SDS011;3362;50.892;10.692;2023-05-10T07:30:18;0.25;;;0.17;;
6651;SDS011;3362;50.892;10.692;2023-05-10T07:32:45;0.10;;;0.10;;
6651;SDS011;3362;50.892;10.692;2023-05-10T07:35:11;0.20;;;0.20;;
6651;SDS011;3362;50.892;10.692;2023-05-10T07:37:37;0.10;;;0.10;;
6651;SDS011;3362;50.892;10.692;2023-05-10T07:40:03;0.10;;;0.10;;
6651;SDS011;3362;50.892;10.692;2023-05-10T07:42:30;0.40;;;0.20;;
6651;SDS011;3362;50.892;10.692;2023-05-10T07:44:56;0.15;;;0.10;;
6651;SDS011;3362;50.892;10.692;2023-05-10T07:47:24;0.00;;;0.00;;
6651;SDS011;3362;50.892;10.692;2023-05-10T07:49:50;0.10;;;0.10;;
6651;SDS011;3362;50.892;10.692;2023-05-10T07:52:17;0.10;;;0.10;;
6651;SDS011;3362;50.892;10.692;2023-05-10T07:54:43;0.00;;;0.00;;
6651;SDS011;3362;50.892;10.692;2023-05-10T07:57:09;0.10;;;0.10;;
6651;SDS011;3362;50.892;10.692;2023-05-10T07:59:35;0.10;;;0.10;;
6651;SDS011;3362;50.892;10.692;2023-05-10T08:02:01;0.10;;;0.10;;
6651;SDS011;3362;50.892;10.692;2023-05-10T08:04:29;0.20;;;0.20;;
6651;SDS011;3362;50.892;10.692;2023-05-10T08:06:55;0.13;;;0.10;;
6651;SDS011;3362;50.892;10.692;2023-05-10T08:09:21;0.00;;;0.00;;
6651;SDS011;3362;50.892;10.692;2023-05-10T08:11:48;0.10;;;0.10;;
6651;SDS011;3362;50.892;10.692;2023-05-10T08:14:15;0.22;;;0.20;;
6651;SDS011;3362;50.892;10.692;2023-05-10T08:16:41;0.10;;;0.10;;
6651;SDS011;3362;50.892;10.692;2023-05-10T08:19:07;0.82;;;0.30;;
6651;SDS011;3362;50.892;10.692;2023-05-10T08:21:35;0.10;;;0.10;;
6651;SDS011;3362;50.892;10.692;2023-05-10T08:24:02;0.20;;;0.20;;
6651;SDS011;3362;50.892;10.692;2023-05-10T08:26:28;0.10;;;0.10;;
6651;SDS011;3362;50.892;10.692;2023-05-10T08:28:54;0.17;;;0.15;;
6651;SDS011;3362;50.892;10.692;2023-05-10T08:31:21;2.67;;;0.15;;
6651;SDS011;3362;50.892;10.692;2023-05-10T08:33:47;0.10;;;0.10;;
6651;SDS011;3362;50.892;10.692;2023-05-10T08:36:13;0.20;;;0.20;;
6651;SDS011;3362;50.892;10.692;2023-05-10T08:38:45;1.45;;;0.65;;
6651;SDS011;3362;50.892;10.692;2023-05-10T08:41:12;0.85;;;0.75;;
6651;SDS011;3362;50.892;10.692;2023-05-10T08:43:39;0.10;;;0.10;;
6651;SDS011;3362;50.892;10.692;2023-05-10T08:46:11;0.10;;;0.10;;
6651;SDS011;3362;50.892;10.692;2023-05-10T08:48:40;0.10;;;0.10;;
6651;SDS011;3362;50.892;10.692;2023-05-10T08:51:07;0.63;;;0.20;;
6651;SDS011;3362;50.892;10.692;2023-05-10T08:53:34;0.10;;;0.10;;
6651;SDS011;3362;50.892;10.692;2023-05-10T08:56:03;0.10;;;0.10;;
6651;SDS011;3362;50.892;10.692;2023-05-10T08:58:30;0.15;;;0.15;;
6651;SDS011;3362;50.892;10.692;2023-05-10T09:00:57;0.38;;;0.20;;
6651;SDS011;3362;50.892;10.692;2023-05-10T09:03:23;0.10;;;0.10;;
6651;SDS011;3362;50.892;10.692;2023-05-10T09:05:50;0.43;;;0.10;;
6651;SDS011;3362;50.892;10.692;2023-05-10T09:08:16;0.13;;;0.13;;
6651;SDS011;3362;50.892;10.692;2023-05-10T09:10:43;0.10;;;0.10;;
6651;SDS011;3362;50.892;10.692;2023-05-10T09:13:13;0.10;;;0.10;;
6651;SDS011;3362;50.892;10.692;2023-05-10T09:15:40;0.13;;;0.13;;
6651;SDS011;3362;50.892;10.692;2023-05-10T09:18:06;0.10;;;0.10;;
6651;SDS011;3362;50.892;10.692;2023-05-10T09:20:32;0.45;;;0.20;;
6651;SDS011;3362;50.892;10.692;2023-05-10T09:22:58;2.53;;;0.40;;
6651;SDS011;3362;50.892;10.692;2023-05-10T09:25:24;0.20;;;0.20;;
6651;SDS011;3362;50.892;10.692;2023-05-10T09:27:52;0.30;;;0.30;;
6651;SDS011;3362;50.892;10.692;2023-05-10T09:30:24;4.03;;;2.38;;
6651;SDS011;3362;50.892;10.692;2023-05-10T09:32:51;1.15;;;0.88;;
6651;SDS011;3362;50.892;10.692;2023-05-10T09:35:18;0.40;;;0.40;;
6651;SDS011;3362;50.892;10.692;2023-05-10T09:37:45;0.93;;;0.70;;
6651;SDS011;3362;50.892;10.692;2023-05-10T09:40:13;2.88;;;1.15;;
6651;SDS011;3362;50.892;10.692;2023-05-10T09:42:40;1.85;;;0.30;;
6651;SDS011;3362;50.892;10.692;2023-05-10T09:45:06;0.20;;;0.15;;
6651;SDS011;3362;50.892;10.692;2023-05-10T09:47:35;0.20;;;0.20;;
6651;SDS011;3362;50.892;10.692;2023-05-10T09:50:01;0.30;;;0.30;;
6651;SDS011;3362;50.892;10.692;2023-05-10T09:52:29;0.20;;;0.20;;
6651;SDS011;3362;50.892;10.692;2023-05-10T09:54:55;0.30;;;0.20;;
6651;SDS011;3362;50.892;10.692;2023-05-10T09:57:21;0.98;;;0.20;;
6651;SDS011;3362;50.892;10.692;2023-05-10T09:59:48;0.30;;;0.30;;
6651;SDS011;3362;50.892;10.692;2023-05-10T10:02:15;0.20;;;0.20;;
6651;SDS011;3362;50.892;10.692;2023-05-10T10:04:43;0.60;;;0.30;;
6651;SDS011;3362;50.892;10.692;2023-05-10T10:07:09;0.28;;;0.28;;
6651;SDS011;3362;50.892;10.692;2023-05-10T10:09:35;0.60;;;0.60;;
6651;SDS011;3362;50.892;10.692;2023-05-10T10:12:01;0.45;;;0.45;;
6651;SDS011;3362;50.892;10.692;2023-05-10T10:14:28;0.30;;;0.30;;
6651;SDS011;3362;50.892;10.692;2023-05-10T10:16:55;0.40;;;0.40;;
6651;SDS011;3362;50.892;10.692;2023-05-10T10:19:21;0.20;;;0.20;;
6651;SDS011;3362;50.892;10.692;2023-05-10T10:21:49;0.32;;;0.32;;
6651;SDS011;3362;50.892;10.692;2023-05-10T10:24:15;0.80;;;0.75;;
6651;SDS011;3362;50.892;10.692;2023-05-10T10:26:42;0.10;;;0.10;;
6651;SDS011;3362;50.892;10.692;2023-05-10T10:29:10;0.30;;;0.30;;
6651;SDS011;3362;50.892;10.692;2023-05-10T10:31:39;0.40;;;0.40;;
6651;SDS011;3362;50.892;10.692;2023-05-10T10:34:07;0.25;;;0.25;;
6651;SDS011;3362;50.892;10.692;2023-05-10T10:36:39;2.45;;;0.30;;
6651;SDS011;3362;50.892;10.692;2023-05-10T10:39:09;0.77;;;0.30;;
6651;SDS011;3362;50.892;10.692;2023-05-10T10:41:36;2.42;;;0.40;;
6651;SDS011;3362;50.892;10.692;2023-05-10T10:46:58;0.40;;;0.40;;
6651;SDS011;3362;50.892;10.692;2023-05-10T10:49:24;0.40;;;0.30;;
6651;SDS011;3362;50.892;10.692;2023-05-10T10:54:37;1.27;;;0.32;;
6651;SDS011;3362;50.892;10.692;2023-05-10T10:57:10;0.40;;;0.40;;
6651;SDS011;3362;50.892;10.692;2023-05-10T10:59:36;0.73;;;0.43;;
6651;SDS011;3362;50.892;10.692;2023-05-10T11:02:06;0.30;;;0.30;;
6651;SDS011;3362;50.892;10.692;2023-05-10T11:04:40;0.30;;;0.30;;
6651;SDS011;3362;50.892;10.692;2023-05-10T11:07:16;1.88;;;0.40;;
6651;SDS011;3362;50.892;10.692;2023-05-10T11:09:44;5.63;;;0.43;;
6651;SDS011;3362;50.892;10.692;2023-05-10T11:12:10;1.63;;;0.40;;
6651;SDS011;3362;50.892;10.692;2023-05-10T11:14:36;0.57;;;0.30;;
6651;SDS011;3362;50.892;10.692;2023-05-10T11:17:03;1.10;;;0.52;;
6651;SDS011;3362;50.892;10.692;2023-05-10T11:20:02;1.98;;;0.40;;
6651;SDS011;3362;50.892;10.692;2023-05-10T11:22:28;0.47;;;0.47;;
6651;SDS011;3362;50.892;10.692;2023-05-10T11:24:57;0.65;;;0.30;;
6651;SDS011;3362;50.892;10.692;2023-05-10T11:27:24;0.70;;;0.57;;
6651;SDS011;3362;50.892;10.692;2023-05-10T11:29:51;1.05;;;0.80;;
6651;SDS011;3362;50.892;10.692;2023-05-10T11:32:17;0.57;;;0.57;;
6651;SDS011;3362;50.892;10.692;2023-05-10T11:34:46;0.50;;;0.50;;
6651;SDS011;3362;50.892;10.692;2023-05-10T11:37:13;0.55;;;0.55;;
6651;SDS011;3362;50.892;10.692;2023-05-10T11:39:45;0.47;;;0.47;;
6651;SDS011;3362;50.892;10.692;2023-05-10T11:42:13;0.55;;;0.50;;
6651;SDS011;3362;50.892;10.692;2023-05-10T11:44:39;3.72;;;0.55;;
6651;SDS011;3362;50.892;10.692;2023-05-10T11:47:06;2.22;;;0.63;;
6651;SDS011;3362;50.892;10.692;2023-05-10T11:49:33;0.85;;;0.70;;
6651;SDS011;3362;50.892;10.692;2023-05-10T11:52:05;0.60;;;0.50;;
6651;SDS011;3362;50.892;10.692;2023-05-10T11:54:32;0.40;;;0.40;;
6651;SDS011;3362;50.892;10.692;2023-05-10T11:56:59;2.70;;;1.92;;
6651;SDS011;3362;50.892;10.692;2023-05-10T11:59:27;2.47;;;1.23;;
6651;SDS011;3362;50.892;10.692;2023-05-10T12:01:53;1.88;;;0.60;;
6651;SDS011;3362;50.892;10.692;2023-05-10T12:04:19;0.90;;;0.55;;
6651;SDS011;3362;50.892;10.692;2023-05-10T12:06:46;1.20;;;0.50;;
6651;SDS011;3362;50.892;10.692;2023-05-10T12:09:12;4.18;;;0.65;;
6651;SDS011;3362;50.892;10.692;2023-05-10T12:11:39;0.30;;;0.30;;
6651;SDS011;3362;50.892;10.692;2023-05-10T12:14:06;0.50;;;0.50;;
6651;SDS011;3362;50.892;10.692;2023-05-10T12:16:33;1.77;;;0.60;;
6651;SDS011;3362;50.892;10.692;2023-05-10T12:19:00;2.22;;;0.60;;
6651;SDS011;3362;50.892;10.692;2023-05-10T12:21:27;0.43;;;0.43;;
6651;SDS011;3362;50.892;10.692;2023-05-10T12:23:59;0.50;;;0.40;;
6651;SDS011;3362;50.892;10.692;2023-05-10T12:26:25;0.50;;;0.50;;
6651;SDS011;3362;50.892;10.692;2023-05-10T12:28:52;0.50;;;0.43;;
6651;SDS011;3362;50.892;10.692;2023-05-10T12:31:18;0.77;;;0.52;;
6651;SDS011;3362;50.892;10.692;2023-05-10T12:33:46;0.85;;;0.50;;
6651;SDS011;3362;50.892;10.692;2023-05-10T12:36:14;0.60;;;0.60;;
6651;SDS011;3362;50.892;10.692;2023-05-10T12:38:41;0.50;;;0.47;;
6651;SDS011;3362;50.892;10.692;2023-05-10T12:41:08;2.05;;;0.43;;
6651;SDS011;3362;50.892;10.692;2023-05-10T12:43:35;0.68;;;0.50;;
6651;SDS011;3362;50.892;10.692;2023-05-10T12:46:05;0.98;;;0.73;;
6651;SDS011;3362;50.892;10.692;2023-05-10T12:48:31;0.70;;;0.70;;
6651;SDS011;3362;50.892;10.692;2023-05-10T12:51:00;0.80;;;0.80;;
6651;SDS011;3362;50.892;10.692;2023-05-10T12:53:26;0.60;;;0.60;;
6651;SDS011;3362;50.892;10.692;2023-05-10T12:55:52;1.30;;;0.68;;
6651;SDS011;3362;50.892;10.692;2023-05-10T12:58:19;4.30;;;0.90;;
6651;SDS011;3362;50.892;10.692;2023-05-10T13:00:45;0.63;;;0.55;;
6651;SDS011;3362;50.892;10.692;2023-05-10T13:03:12;1.70;;;0.70;;
6651;SDS011;3362;50.892;10.692;2023-05-10T13:05:38;0.65;;;0.65;;
6651;SDS011;3362;50.892;10.692;2023-05-10T13:08:06;1.70;;;1.17;;
6651;SDS011;3362;50.892;10.692;2023-05-10T13:10:32;0.75;;;0.75;;
6651;SDS011;3362;50.892;10.692;2023-05-10T13:12:58;2.03;;;0.70;;
6651;SDS011;3362;50.892;10.692;2023-05-10T13:15:25;1.02;;;0.65;;
6651;SDS011;3362;50.892;10.692;2023-05-10T13:17:51;0.77;;;0.77;;
6651;SDS011;3362;50.892;10.692;2023-05-10T13:20:17;1.55;;;0.60;;
6651;SDS011;3362;50.892;10.692;2023-05-10T13:22:44;1.13;;;0.93;;
6651;SDS011;3362;50.892;10.692;2023-05-10T13:25:11;0.77;;;0.77;;
6651;SDS011;3362;50.892;10.692;2023-05-10T13:27:38;0.55;;;0.52;;
6651;SDS011;3362;50.892;10.692;2023-05-10T13:30:05;1.00;;;0.50;;
6651;SDS011;3362;50.892;10.692;2023-05-10T13:32:31;1.00;;;0.63;;
6651;SDS011;3362;50.892;10.692;2023-05-10T13:34:58;0.63;;;0.60;;
6651;SDS011;3362;50.892;10.692;2023-05-10T13:37:24;0.65;;;0.65;;
6651;SDS011;3362;50.892;10.692;2023-05-10T13:39:50;0.60;;;0.60;;
6651;SDS011;3362;50.892;10.692;2023-05-10T13:42:18;0.82;;;0.68;;
6651;SDS011;3362;50.892;10.692;2023-05-10T13:44:44;1.08;;;0.77;;
6651;SDS011;3362;50.892;10.692;2023-05-10T13:47:11;0.50;;;0.50;;
6651;SDS011;3362;50.892;10.692;2023-05-10T13:49:37;0.82;;;0.50;;
6651;SDS011;3362;50.892;10.692;2023-05-10T13:52:03;0.45;;;0.45;;
6651;SDS011;3362;50.892;10.692;2023-05-10T13:54:31;0.70;;;0.70;;
6651;SDS011;3362;50.892;10.692;2023-05-10T13:56:57;0.75;;;0.50;;
6651;SDS011;3362;50.892;10.692;2023-05-10T13:59:25;0.45;;;0.45;;
6651;SDS011;3362;50.892;10.692;2023-05-10T14:01:51;0.40;;;0.40;;
6651;SDS011;3362;50.892;10.692;2023-05-10T14:04:17;0.60;;;0.50;;
6651;SDS011;3362;50.892;10.692;2023-05-10T14:06:44;0.40;;;0.40;;
6651;SDS011;3362;50.892;10.692;2023-05-10T14:09:10;0.85;;;0.47;;
6651;SDS011;3362;50.892;10.692;2023-05-10T14:11:36;0.77;;;0.50;;
6651;SDS011;3362;50.892;10.692;2023-05-10T14:14:06;0.60;;;0.60;;
6651;SDS011;3362;50.892;10.692;2023-05-10T14:16:34;0.50;;;0.50;;
6651;SDS011;3362;50.892;10.692;2023-05-10T14:19:00;0.70;;;0.50;;
6651;SDS011;3362;50.892;10.692;2023-05-10T14:21:26;0.47;;;0.47;;
6651;SDS011;3362;50.892;10.692;2023-05-10T14:23:53;0.60;;;0.50;;
6651;SDS011;3362;50.892;10.692;2023-05-10T14:26:20;0.45;;;0.45;;
6651;SDS011;3362;50.892;10.692;2023-05-10T14:28:46;1.02;;;0.82;;
6651;SDS011;3362;50.892;10.692;2023-05-10T14:31:13;0.65;;;0.65;;
6651;SDS011;3362;50.892;10.692;2023-05-10T14:33:40;1.38;;;0.88;;
6651;SDS011;3362;50.892;10.692;2023-05-10T14:36:07;1.40;;;0.75;;
6651;SDS011;3362;50.892;10.692;2023-05-10T14:38:33;2.20;;;0.70;;
6651;SDS011;3362;50.892;10.692;2023-05-10T14:41:00;0.93;;;0.60;;
6651;SDS011;3362;50.892;10.692;2023-05-10T14:43:26;1.90;;;0.60;;
6651;SDS011;3362;50.892;10.692;2023-05-10T14:45:53;1.17;;;0.77;;
6651;SDS011;3362;50.892;10.692;2023-05-10T14:48:19;0.60;;;0.60;;
6651;SDS011;3362;50.892;10.692;2023-05-10T14:50:47;0.68;;;0.68;;
6651;SDS011;3362;50.892;10.692;2023-05-10T14:53:14;1.98;;;0.70;;
6651;SDS011;3362;50.892;10.692;2023-05-10T14:55:41;1.00;;;0.50;;
6651;SDS011;3362;50.892;10.692;2023-05-10T14:58:07;0.75;;;0.63;;
6651;SDS011;3362;50.892;10.692;2023-05-10T15:00:33;1.95;;;0.57;;
6651;SDS011;3362;50.892;10.692;2023-05-10T15:02:59;5.85;;;0.82;;
6651;SDS011;3362;50.892;10.692;2023-05-10T15:05:26;1.33;;;0.75;;